sensor_id;sensor_type;location;lat;lon;timestamp;P1;durP1;ratioP1;P2;durP2;ratioP2
4001;SDS011;2015;48.670;9.060;2022-09-12T00:01:39;13.50;;;9.80;;
4001;SDS011;2015;48.670;9.060;2022-09-12T00:04:11;12.40;;;11.17;;
4001;SDS011;2015;48.670;9.060;2022-09-12T00:06:43;19.93;;;11.83;;
4001;SDS011;2015;48.670;9.060;2022-09-12T00:09:15;12.17;;;11.07;;
4001;SDS011;2015;48.670;9.060;2022-09-12T00:11:47;14.00;;;12.10;;
4001;SDS011;2015;48.670;9.060;2022-09-12T00:14:18;12.43;;;10.67;;
4001;SDS011;2015;48.670;9.060;2022-09-12T00:16:50;17.40;;;11.77;;
4001;SDS011;2015;48.670;9.060;2022-09-12T00:19:22;13.37;;;11.97;;
4001;SDS011;2015;48.670;9.060;2022-09-12T00:21:54;19.03;;;11.67;;
4001;SDS011;2015;48.670;9.060;2022-09-12T00:24:26;15.87;;;11.50;;
4001;SDS011;2015;48.670;9.060;2022-09-12T00:26:58;13.60;;;11.20;;
4001;SDS011;2015;48.670;9.060;2022-09-12T00:29:30;17.87;;;11.23;;
4001;SDS011;2015;48.670;9.060;2022-09-12T00:32:02;13.53;;;11.17;;
4001;SDS011;2015;48.670;9.060;2022-09-12T00:34:33;13.80;;;11.03;;
4001;SDS011;2015;48.670;9.060;2022-09-12T00:37:06;13.10;;;11.13;;
4001;SDS011;2015;48.670;9.060;2022-09-12T00:39:38;14.80;;;10.53;;
4001;SDS011;2015;48.670;9.060;2022-09-12T00:42:10;11.63;;;10.13;;
4001;SDS011;2015;48.670;9.060;2022-09-12T00:44:44;11.80;;;10.60;;
4001;SDS011;2015;48.670;9.060;2022-09-12T00:47:19;11.97;;;10.87;;
4001;SDS011;2015;48.670;9.060;2022-09-12T00:52:33;11.10;;;9.80;;
4001;SDS011;2015;48.670;9.060;2022-09-12T00:55:18;11.33;;;9.43;;
4001;SDS011;2015;48.670;9.060;2022-09-12T00:57:59;12.77;;;11.10;;
4001;SDS011;2015;48.670;9.060;2022-09-12T01:00:39;11.93;;;10.73;;
4001;SDS011;2015;48.670;9.060;2022-09-12T01:03:11;11.63;;;10.43;;
4001;SDS011;2015;48.670;9.060;2022-09-12T01:05:50;12.27;;;11.00;;
4001;SDS011;2015;48.670;9.060;2022-09-12T01:08:32;11.27;;;10.17;;
4001;SDS011;2015;48.670;9.060;2022-09-12T01:11:07;13.17;;;11.17;;
4001;SDS011;2015;48.670;9.060;2022-09-12T01:13:42;11.53;;;10.30;;
4001;SDS011;2015;48.670;9.060;2022-09-12T01:16:15;10.77;;;9.67;;
4001;SDS011;2015;48.670;9.060;2022-09-12T01:21:38;10.90;;;9.80;;
4001;SDS011;2015;48.670;9.060;2022-09-12T01:41:26;11.80;;;8.90;;
4001;SDS011;2015;48.670;9.060;2022-09-12T01:50:06;17.93;;;10.93;;
4001;SDS011;2015;48.670;9.060;2022-09-12T01:52:38;10.53;;;9.30;;
4001;SDS011;2015;48.670;9.060;2022-09-12T01:55:21;11.33;;;10.03;;
4001;SDS011;2015;48.670;9.060;2022-09-12T01:59:00;11.80;;;10.37;;
4001;SDS011;2015;48.670;9.060;2022-09-12T02:01:19;16.13;;;9.53;;
4001;SDS011;2015;48.670;9.060;2022-09-12T02:06:45;9.87;;;8.97;;
4001;SDS011;2015;48.670;9.060;2022-09-12T02:09:25;12.30;;;11.00;;
4001;SDS011;2015;48.670;9.060;2022-09-12T02:11:59;11.93;;;9.80;;
4001;SDS011;2015;48.670;9.060;2022-09-12T02:14:41;10.63;;;9.60;;
4001;SDS011;2015;48.670;9.060;2022-09-12T02:17:19;13.70;;;10.77;;
4001;SDS011;2015;48.670;9.060;2022-09-12T02:19:54;14.40;;;10.87;;
4001;SDS011;2015;48.670;9.060;2022-09-12T02:22:31;10.37;;;9.30;;
4001;SDS011;2015;48.670;9.060;2022-09-12T02:25:06;12.60;;;10.33;;
4001;SDS011;2015;48.670;9.060;2022-09-12T02:27:42;10.80;;;9.10;;
4001;SDS011;2015;48.670;9.060;2022-09-12T02:30:17;9.10;;;8.10;;
4001;SDS011;2015;48.670;9.060;2022-09-12T02:35:28;9.80;;;8.87;;
4001;SDS011;2015;48.670;9.060;2022-09-12T02:40:50;10.40;;;9.40;;
4001;SDS011;2015;48.670;9.060;2022-09-12T02:43:22;10.03;;;9.00;;
4001;SDS011;2015;48.670;9.060;2022-09-12T02:45:54;10.00;;;8.93;;
4001;SDS011;2015;48.670;9.060;2022-09-12T02:48:27;12.10;;;10.00;;
4001;SDS011;2015;48.670;9.060;2022-09-12T02:51:02;16.37;;;10.10;;
4001;SDS011;2015;48.670;9.060;2022-09-12T02:53:34;16.43;;;10.10;;
4001;SDS011;2015;48.670;9.060;2022-09-12T02:56:07;10.20;;;9.20;;
4001;SDS011;2015;48.670;9.060;2022-09-12T02:58:43;12.50;;;9.50;;
4001;SDS011;2015;48.670;9.060;2022-09-12T03:15:48;11.83;;;10.53;;
4001;SDS011;2015;48.670;9.060;2022-09-12T03:18:38;12.10;;;10.00;;
4001;SDS011;2015;48.670;9.060;2022-09-12T03:21:36;21.03;;;10.60;;
4001;SDS011;2015;48.670;9.060;2022-09-12T03:24:24;9.57;;;8.40;;
4001;SDS011;2015;48.670;9.060;2022-09-12T03:29:48;9.90;;;8.70;;
4001;SDS011;2015;48.670;9.060;2022-09-12T03:35:12;13.37;;;11.00;;
4001;SDS011;2015;48.670;9.060;2022-09-12T03:37:50;11.23;;;10.10;;
4001;SDS011;2015;48.670;9.060;2022-09-12T03:40:22;15.13;;;9.03;;
4001;SDS011;2015;48.670;9.060;2022-09-12T03:42:54;11.93;;;9.63;;
4001;SDS011;2015;48.670;9.060;2022-09-12T03:45:25;10.80;;;9.40;;
4001;SDS011;2015;48.670;9.060;2022-09-12T03:47:57;13.37;;;10.50;;
4001;SDS011;2015;48.670;9.060;2022-09-12T03:50:29;13.10;;;11.80;;
4001;SDS011;2015;48.670;9.060;2022-09-12T03:53:01;11.03;;;10.13;;
4001;SDS011;2015;48.670;9.060;2022-09-12T03:55:33;11.33;;;10.33;;
4001;SDS011;2015;48.670;9.060;2022-09-12T03:58:06;19.87;;;10.47;;
4001;SDS011;2015;48.670;9.060;2022-09-12T04:00:37;10.90;;;9.80;;
4001;SDS011;2015;48.670;9.060;2022-09-12T04:03:10;10.40;;;9.37;;
4001;SDS011;2015;48.670;9.060;2022-09-12T04:05:42;10.97;;;9.87;;
4001;SDS011;2015;48.670;9.060;2022-09-12T04:08:13;19.37;;;10.07;;
4001;SDS011;2015;48.670;9.060;2022-09-12T04:10:45;13.97;;;10.13;;
4001;SDS011;2015;48.670;9.060;2022-09-12T04:13:17;10.57;;;9.57;;
4001;SDS011;2015;48.670;9.060;2022-09-12T04:15:55;13.83;;;9.67;;
4001;SDS011;2015;48.670;9.060;2022-09-12T04:18:28;14.13;;;10.47;;
4001;SDS011;2015;48.670;9.060;2022-09-12T04:21:04;8.87;;;7.97;;
4001;SDS011;2015;48.670;9.060;2022-09-12T04:23:37;12.83;;;10.70;;
4001;SDS011;2015;48.670;9.060;2022-09-12T04:26:09;13.47;;;9.87;;
4001;SDS011;2015;48.670;9.060;2022-09-12T04:28:42;11.60;;;9.97;;
4001;SDS011;2015;48.670;9.060;2022-09-12T04:31:15;15.40;;;11.37;;
4001;SDS011;2015;48.670;9.060;2022-09-12T04:33:58;11.37;;;10.10;;
4001;SDS011;2015;48.670;9.060;2022-09-12T04:36:30;11.40;;;9.87;;
4001;SDS011;2015;48.670;9.060;2022-09-12T04:39:04;12.90;;;10.60;;
4001;SDS011;2015;48.670;9.060;2022-09-12T04:41:37;12.20;;;10.03;;
4001;SDS011;2015;48.670;9.060;2022-09-12T04:44:11;14.37;;;12.03;;
4001;SDS011;2015;48.670;9.060;2022-09-12T04:46:45;13.83;;;10.83;;
4001;SDS011;2015;48.670;9.060;2022-09-12T04:49:17;15.60;;;11.33;;
4001;SDS011;2015;48.670;9.060;2022-09-12T04:51:51;14.60;;;12.57;;
4001;SDS011;2015;48.670;9.060;2022-09-12T04:54:23;16.20;;;11.07;;
4001;SDS011;2015;48.670;9.060;2022-09-12T04:56:55;14.47;;;10.90;;
4001;SDS011;2015;48.670;9.060;2022-09-12T04:59:27;12.40;;;9.70;;
4001;SDS011;2015;48.670;9.060;2022-09-12T05:01:59;12.10;;;10.77;;
4001;SDS011;2015;48.670;9.060;2022-09-12T05:04:31;14.27;;;10.43;;
4001;SDS011;2015;48.670;9.060;2022-09-12T05:07:02;13.50;;;11.00;;
4001;SDS011;2015;48.670;9.060;2022-09-12T05:09:35;13.07;;;11.00;;
4001;SDS011;2015;48.670;9.060;2022-09-12T05:12:07;12.33;;;11.07;;
4001;SDS011;2015;48.670;9.060;2022-09-12T05:14:39;12.87;;;10.93;;
4001;SDS011;2015;48.670;9.060;2022-09-12T05:17:11;10.97;;;9.93;;
4001;SDS011;2015;48.670;9.060;2022-09-12T05:19:43;11.20;;;9.97;;
4001;SDS011;2015;48.670;9.060;2022-09-12T05:22:14;11.60;;;10.60;;
4001;SDS011;2015;48.670;9.060;2022-09-12T05:24:46;13.77;;;11.67;;
4001;SDS011;2015;48.670;9.060;2022-09-12T05:27:24;15.50;;;12.60;;
4001;SDS011;2015;48.670;9.060;2022-09-12T05:29:55;15.27;;;12.37;;
4001;SDS011;2015;48.670;9.060;2022-09-12T05:32:29;14.07;;;11.77;;
4001;SDS011;2015;48.670;9.060;2022-09-12T05:35:02;14.47;;;12.23;;
4001;SDS011;2015;48.670;9.060;2022-09-12T05:37:34;14.30;;;11.60;;
4001;SDS011;2015;48.670;9.060;2022-09-12T05:40:06;12.67;;;11.50;;
4001;SDS011;2015;48.670;9.060;2022-09-12T05:42:38;14.53;;;10.53;;
4001;SDS011;2015;48.670;9.060;2022-09-12T05:45:10;13.23;;;10.93;;
4001;SDS011;2015;48.670;9.060;2022-09-12T05:47:43;12.52;;;10.68;;
4001;SDS011;2015;48.670;9.060;2022-09-12T05:50:16;14.87;;;12.60;;
4001;SDS011;2015;48.670;9.060;2022-09-12T05:52:48;15.97;;;11.63;;
4001;SDS011;2015;48.670;9.060;2022-09-12T05:55:20;13.40;;;11.70;;
4001;SDS011;2015;48.670;9.060;2022-09-12T05:57:53;14.97;;;11.70;;
4001;SDS011;2015;48.670;9.060;2022-09-12T06:00:24;13.53;;;11.67;;
4001;SDS011;2015;48.670;9.060;2022-09-12T06:03:01;12.37;;;10.93;;
4001;SDS011;2015;48.670;9.060;2022-09-12T06:05:33;16.60;;;11.47;;
4001;SDS011;2015;48.670;9.060;2022-09-12T06:08:05;13.00;;;11.00;;
4001;SDS011;2015;48.670;9.060;2022-09-12T06:10:37;16.20;;;11.47;;
4001;SDS011;2015;48.670;9.060;2022-09-12T06:13:08;15.70;;;11.23;;
4001;SDS011;2015;48.670;9.060;2022-09-12T06:15:40;15.17;;;11.43;;
4001;SDS011;2015;48.670;9.060;2022-09-12T06:18:12;14.40;;;11.13;;
4001;SDS011;2015;48.670;9.060;2022-09-12T06:20:43;14.90;;;12.37;;
4001;SDS011;2015;48.670;9.060;2022-09-12T06:23:15;15.33;;;12.30;;
4001;SDS011;2015;48.670;9.060;2022-09-12T06:25:47;15.97;;;12.50;;
4001;SDS011;2015;48.670;9.060;2022-09-12T06:28:20;17.40;;;13.67;;
4001;SDS011;2015;48.670;9.060;2022-09-12T06:30:52;13.10;;;11.63;;
4001;SDS011;2015;48.670;9.060;2022-09-12T06:33:23;17.83;;;12.80;;
4001;SDS011;2015;48.670;9.060;2022-09-12T06:35:55;17.37;;;13.43;;
4001;SDS011;2015;48.670;9.060;2022-09-12T06:38:33;17.30;;;13.83;;
4001;SDS011;2015;48.670;9.060;2022-09-12T06:41:06;18.53;;;14.70;;
4001;SDS011;2015;48.670;9.060;2022-09-12T06:43:40;24.67;;;17.40;;
4001;SDS011;2015;48.670;9.060;2022-09-12T06:46:13;23.30;;;16.47;;
4001;SDS011;2015;48.670;9.060;2022-09-12T06:48:44;20.80;;;14.70;;
4001;SDS011;2015;48.670;9.060;2022-09-12T06:51:17;21.50;;;15.57;;
4001;SDS011;2015;48.670;9.060;2022-09-12T06:53:50;17.60;;;15.07;;
4001;SDS011;2015;48.670;9.060;2022-09-12T06:56:23;18.07;;;15.30;;
4001;SDS011;2015;48.670;9.060;2022-09-12T06:58:57;16.23;;;13.90;;
4001;SDS011;2015;48.670;9.060;2022-09-12T07:01:30;15.13;;;13.40;;
4001;SDS011;2015;48.670;9.060;2022-09-12T07:04:02;19.43;;;14.60;;
4001;SDS011;2015;48.670;9.060;2022-09-12T07:06:36;14.33;;;12.83;;
4001;SDS011;2015;48.670;9.060;2022-09-12T07:09:11;18.40;;;12.27;;
4001;SDS011;2015;48.670;9.060;2022-09-12T07:11:44;14.10;;;11.87;;
4001;SDS011;2015;48.670;9.060;2022-09-12T07:14:16;15.80;;;13.47;;
4001;SDS011;2015;48.670;9.060;2022-09-12T07:16:48;13.40;;;12.00;;
4001;SDS011;2015;48.670;9.060;2022-09-12T07:19:20;13.57;;;10.90;;
4001;SDS011;2015;48.670;9.060;2022-09-12T07:21:52;17.17;;;12.00;;
4001;SDS011;2015;48.670;9.060;2022-09-12T07:24:28;13.70;;;12.17;;
4001;SDS011;2015;48.670;9.060;2022-09-12T07:27:00;13.83;;;12.43;;
4001;SDS011;2015;48.670;9.060;2022-09-12T07:29:32;14.83;;;12.03;;
4001;SDS011;2015;48.670;9.060;2022-09-12T07:32:08;13.13;;;11.73;;
4001;SDS011;2015;48.670;9.060;2022-09-12T07:34:42;12.30;;;11.10;;
4001;SDS011;2015;48.670;9.060;2022-09-12T07:37:15;15.20;;;10.60;;
4001;SDS011;2015;48.670;9.060;2022-09-12T07:39:47;11.90;;;10.70;;
4001;SDS011;2015;48.670;9.060;2022-09-12T07:42:20;10.17;;;9.17;;
4001;SDS011;2015;48.670;9.060;2022-09-12T07:44:52;12.40;;;9.90;;
4001;SDS011;2015;48.670;9.060;2022-09-12T07:47:24;10.37;;;9.27;;
4001;SDS011;2015;48.670;9.060;2022-09-12T07:49:56;10.43;;;8.40;;
4001;SDS011;2015;48.670;9.060;2022-09-12T07:52:28;12.90;;;9.93;;
4001;SDS011;2015;48.670;9.060;2022-09-12T07:55:01;10.37;;;9.20;;
4001;SDS011;2015;48.670;9.060;2022-09-12T07:57:33;9.33;;;8.43;;
4001;SDS011;2015;48.670;9.060;2022-09-12T08:00:05;8.57;;;7.87;;
4001;SDS011;2015;48.670;9.060;2022-09-12T08:02:38;8.30;;;7.50;;
4001;SDS011;2015;48.670;9.060;2022-09-12T08:05:10;8.30;;;7.63;;
4001;SDS011;2015;48.670;9.060;2022-09-12T08:07:42;6.83;;;6.33;;
4001;SDS011;2015;48.670;9.060;2022-09-12T08:10:14;7.27;;;6.67;;
4001;SDS011;2015;48.670;9.060;2022-09-12T08:12:46;7.77;;;6.97;;
4001;SDS011;2015;48.670;9.060;2022-09-12T08:15:18;6.93;;;6.43;;
4001;SDS011;2015;48.670;9.060;2022-09-12T08:17:50;8.50;;;6.87;;
4001;SDS011;2015;48.670;9.060;2022-09-12T08:20:22;6.23;;;5.70;;
4001;SDS011;2015;48.670;9.060;2022-09-12T08:22:58;7.30;;;6.80;;
4001;SDS011;2015;48.670;9.060;2022-09-12T08:25:30;7.20;;;6.50;;
4001;SDS011;2015;48.670;9.060;2022-09-12T08:28:01;11.67;;;6.67;;
4001;SDS011;2015;48.670;9.060;2022-09-12T08:30:33;6.43;;;6.03;;
4001;SDS011;2015;48.670;9.060;2022-09-12T08:33:05;6.37;;;5.97;;
4001;SDS011;2015;48.670;9.060;2022-09-12T08:35:38;7.17;;;6.73;;
4001;SDS011;2015;48.670;9.060;2022-09-12T08:38:09;6.80;;;6.20;;
4001;SDS011;2015;48.670;9.060;2022-09-12T08:40:49;5.53;;;5.13;;
4001;SDS011;2015;48.670;9.060;2022-09-12T08:46:12;6.30;;;5.80;;
4001;SDS011;2015;48.670;9.060;2022-09-12T08:48:51;6.70;;;6.27;;
4001;SDS011;2015;48.670;9.060;2022-09-12T08:51:25;7.33;;;6.30;;
4001;SDS011;2015;48.670;9.060;2022-09-12T08:53:59;6.33;;;5.90;;
4001;SDS011;2015;48.670;9.060;2022-09-12T08:56:33;6.40;;;5.90;;
4001;SDS011;2015;48.670;9.060;2022-09-12T08:59:07;5.10;;;4.80;;
4001;SDS011;2015;48.670;9.060;2022-09-12T09:01:40;5.50;;;5.10;;
4001;SDS011;2015;48.670;9.060;2022-09-12T09:12:13;5.33;;;5.03;;
4001;SDS011;2015;48.670;9.060;2022-09-12T09:15:01;4.70;;;4.40;;
4001;SDS011;2015;48.670;9.060;2022-09-12T09:17:57;5.60;;;5.20;;
4001;SDS011;2015;48.670;9.060;2022-09-12T09:29:31;5.17;;;4.87;;
4001;SDS011;2015;48.670;9.060;2022-09-12T09:32:12;3.88;;;3.67;;
4001;SDS011;2015;48.670;9.060;2022-09-12T09:34:48;3.95;;;3.50;;
4001;SDS011;2015;48.670;9.060;2022-09-12T09:42:57;2.65;;;2.55;;
4001;SDS011;2015;48.670;9.060;2022-09-12T09:45:50;2.75;;;2.55;;
4001;SDS011;2015;48.670;9.060;2022-09-12T09:48:24;3.15;;;2.95;;
4001;SDS011;2015;48.670;9.060;2022-09-12T09:51:01;3.50;;;3.20;;
4001;SDS011;2015;48.670;9.060;2022-09-12T09:53:46;2.83;;;2.72;;
4001;SDS011;2015;48.670;9.060;2022-09-12T09:56:38;3.45;;;3.25;;
4001;SDS011;2015;48.670;9.060;2022-09-12T10:01:58;2.90;;;2.80;;
4001;SDS011;2015;48.670;9.060;2022-09-12T10:04:35;2.97;;;2.78;;
4001;SDS011;2015;48.670;9.060;2022-09-12T10:07:18;2.78;;;2.58;;
4001;SDS011;2015;48.670;9.060;2022-09-12T10:12:47;2.80;;;2.70;;
4001;SDS011;2015;48.670;9.060;2022-09-12T10:15:23;3.28;;;3.08;;
4001;SDS011;2015;48.670;9.060;2022-09-12T10:17:56;2.83;;;2.72;;
4001;SDS011;2015;48.670;9.060;2022-09-12T10:26:00;2.35;;;2.25;;
4001;SDS011;2015;48.670;9.060;2022-09-12T10:31:14;2.90;;;2.80;;
4001;SDS011;2015;48.670;9.060;2022-09-12T10:33:58;2.85;;;2.75;;
4001;SDS011;2015;48.670;9.060;2022-09-12T10:36:34;2.53;;;2.40;;
4001;SDS011;2015;48.670;9.060;2022-09-12T10:39:11;2.90;;;2.80;;
4001;SDS011;2015;48.670;9.060;2022-09-12T10:41:49;3.03;;;2.83;;
4001;SDS011;2015;48.670;9.060;2022-09-12T10:44:25;2.92;;;2.83;;
4001;SDS011;2015;48.670;9.060;2022-09-12T10:47:18;2.65;;;2.55;;
4001;SDS011;2015;48.670;9.060;2022-09-12T10:49:52;5.10;;;2.28;;
4001;SDS011;2015;48.670;9.060;2022-09-12T10:52:24;2.33;;;2.22;;
4001;SDS011;2015;48.670;9.060;2022-09-12T10:54:55;2.63;;;2.53;;
4001;SDS011;2015;48.670;9.060;2022-09-12T11:00:18;2.35;;;2.25;;
4001;SDS011;2015;48.670;9.060;2022-09-12T11:03:05;2.60;;;2.50;;
4001;SDS011;2015;48.670;9.060;2022-09-12T11:05:54;2.45;;;2.35;;
4001;SDS011;2015;48.670;9.060;2022-09-12T11:11:50;2.90;;;2.70;;
4001;SDS011;2015;48.670;9.060;2022-09-12T11:28:23;2.33;;;2.15;;
4001;SDS011;2015;48.670;9.060;2022-09-12T11:31:05;2.30;;;2.20;;
4001;SDS011;2015;48.670;9.060;2022-09-12T11:34:01;2.80;;;2.65;;
4001;SDS011;2015;48.670;9.060;2022-09-12T11:36:58;2.50;;;2.30;;
4001;SDS011;2015;48.670;9.060;2022-09-12T11:39:50;2.23;;;2.13;;
4001;SDS011;2015;48.670;9.060;2022-09-12T11:42:29;2.43;;;2.33;;
4001;SDS011;2015;48.670;9.060;2022-09-12T11:45:25;2.37;;;2.27;;
4001;SDS011;2015;48.670;9.060;2022-09-12T11:48:00;2.87;;;2.77;;
4001;SDS011;2015;48.670;9.060;2022-09-12T11:50:37;2.30;;;2.20;;
4001;SDS011;2015;48.670;9.060;2022-09-12T11:53:16;2.10;;;2.00;;
4001;SDS011;2015;48.670;9.060;2022-09-12T11:56:04;1.97;;;1.83;;
4001;SDS011;2015;48.670;9.060;2022-09-12T11:58:43;2.37;;;2.27;;
4001;SDS011;2015;48.670;9.060;2022-09-12T12:01:31;1.83;;;1.73;;
4001;SDS011;2015;48.670;9.060;2022-09-12T12:04:15;2.70;;;2.60;;
4001;SDS011;2015;48.670;9.060;2022-09-12T12:06:52;2.50;;;2.40;;
4001;SDS011;2015;48.670;9.060;2022-09-12T12:09:32;3.40;;;2.60;;
4001;SDS011;2015;48.670;9.060;2022-09-12T12:12:20;2.90;;;2.70;;
4001;SDS011;2015;48.670;9.060;2022-09-12T12:14:55;2.80;;;2.60;;
4001;SDS011;2015;48.670;9.060;2022-09-12T12:17:27;2.30;;;2.10;;
4001;SDS011;2015;48.670;9.060;2022-09-12T12:20:00;4.73;;;4.43;;
4001;SDS011;2015;48.670;9.060;2022-09-12T12:22:38;2.33;;;2.23;;
4001;SDS011;2015;48.670;9.060;2022-09-12T12:25:24;2.40;;;2.30;;
4001;SDS011;2015;48.670;9.060;2022-09-12T12:28:08;2.50;;;2.30;;
4001;SDS011;2015;48.670;9.060;2022-09-12T12:30:57;2.43;;;2.33;;
4001;SDS011;2015;48.670;9.060;2022-09-12T12:36:02;2.50;;;2.40;;
4001;SDS011;2015;48.670;9.060;2022-09-12T12:38:58;2.30;;;2.20;;
4001;SDS011;2015;48.670;9.060;2022-09-12T12:41:50;2.80;;;2.70;;
4001;SDS011;2015;48.670;9.060;2022-09-12T12:50:00;2.00;;;1.90;;
4001;SDS011;2015;48.670;9.060;2022-09-12T12:58:24;2.40;;;2.30;;
4001;SDS011;2015;48.670;9.060;2022-09-12T13:01:16;2.40;;;2.27;;
4001;SDS011;2015;48.670;9.060;2022-09-12T13:03:55;2.00;;;1.90;;
4001;SDS011;2015;48.670;9.060;2022-09-12T13:06:34;2.20;;;2.00;;
4001;SDS011;2015;48.670;9.060;2022-09-12T13:12:19;2.30;;;2.20;;
4001;SDS011;2015;48.670;9.060;2022-09-12T13:15:00;2.43;;;2.33;;
4001;SDS011;2015;48.670;9.060;2022-09-12T13:20:24;3.00;;;2.80;;
4001;SDS011;2015;48.670;9.060;2022-09-12T13:23:01;2.50;;;2.40;;
4001;SDS011;2015;48.670;9.060;2022-09-12T13:25:34;2.50;;;2.30;;
4001;SDS011;2015;48.670;9.060;2022-09-12T13:30:42;2.20;;;2.10;;
4001;SDS011;2015;48.670;9.060;2022-09-12T13:45:16;2.50;;;2.40;;
4001;SDS011;2015;48.670;9.060;2022-09-12T13:48:32;3.63;;;3.43;;
4001;SDS011;2015;48.670;9.060;2022-09-12T13:50:49;2.73;;;2.60;;
4001;SDS011;2015;48.670;9.060;2022-09-12T13:53:25;2.23;;;2.13;;
4001;SDS011;2015;48.670;9.060;2022-09-12T13:56:02;2.20;;;2.10;;
4001;SDS011;2015;48.670;9.060;2022-09-12T13:58:34;2.37;;;2.23;;
4001;SDS011;2015;48.670;9.060;2022-09-12T14:03:51;3.50;;;3.00;;
4001;SDS011;2015;48.670;9.060;2022-09-12T14:06:44;4.87;;;4.67;;
4001;SDS011;2015;48.670;9.060;2022-09-12T14:09:31;3.13;;;2.73;;
4001;SDS011;2015;48.670;9.060;2022-09-12T14:12:26;2.67;;;2.57;;
4001;SDS011;2015;48.670;9.060;2022-09-12T14:15:02;2.27;;;2.17;;
4001;SDS011;2015;48.670;9.060;2022-09-12T14:17:37;3.40;;;3.20;;
4001;SDS011;2015;48.670;9.060;2022-09-12T14:20:15;3.00;;;2.90;;
4001;SDS011;2015;48.670;9.060;2022-09-12T14:22:51;2.80;;;2.70;;
4001;SDS011;2015;48.670;9.060;2022-09-12T14:25:23;3.00;;;2.80;;
4001;SDS011;2015;48.670;9.060;2022-09-12T14:27:59;4.10;;;3.90;;
4001;SDS011;2015;48.670;9.060;2022-09-12T14:30:32;2.73;;;2.63;;
4001;SDS011;2015;48.670;9.060;2022-09-12T14:35:42;5.17;;;4.67;;
4001;SDS011;2015;48.670;9.060;2022-09-12T14:38:22;3.20;;;3.00;;
4001;SDS011;2015;48.670;9.060;2022-09-12T14:41:00;3.00;;;2.90;;
4001;SDS011;2015;48.670;9.060;2022-09-12T14:43:37;5.93;;;5.53;;
4001;SDS011;2015;48.670;9.060;2022-09-12T14:46:21;5.27;;;2.93;;
4001;SDS011;2015;48.670;9.060;2022-09-12T14:57:01;3.00;;;2.80;;
4001;SDS011;2015;48.670;9.060;2022-09-12T14:59:48;2.93;;;2.83;;
4001;SDS011;2015;48.670;9.060;2022-09-12T15:02:24;7.43;;;6.80;;
4001;SDS011;2015;48.670;9.060;2022-09-12T15:07:41;8.43;;;7.70;;
4001;SDS011;2015;48.670;9.060;2022-09-12T15:10:34;3.50;;;3.30;;
4001;SDS011;2015;48.670;9.060;2022-09-12T15:15:40;3.70;;;3.50;;
4001;SDS011;2015;48.670;9.060;2022-09-12T15:18:14;3.07;;;2.90;;
4001;SDS011;2015;48.670;9.060;2022-09-12T15:20:47;2.57;;;2.37;;
4001;SDS011;2015;48.670;9.060;2022-09-12T15:26:13;9.90;;;9.20;;
4001;SDS011;2015;48.670;9.060;2022-09-12T15:28:48;4.77;;;4.57;;
4001;SDS011;2015;48.670;9.060;2022-09-12T15:31:25;2.90;;;2.70;;
4001;SDS011;2015;48.670;9.060;2022-09-12T15:33:59;2.70;;;2.60;;
4001;SDS011;2015;48.670;9.060;2022-09-12T15:36:32;2.50;;;2.40;;
4001;SDS011;2015;48.670;9.060;2022-09-12T15:39:04;2.93;;;2.80;;
4001;SDS011;2015;48.670;9.060;2022-09-12T15:41:36;2.60;;;2.50;;
4001;SDS011;2015;48.670;9.060;2022-09-12T15:44:10;2.93;;;2.83;;
4001;SDS011;2015;48.670;9.060;2022-09-12T15:46:43;2.80;;;2.70;;
4001;SDS011;2015;48.670;9.060;2022-09-12T15:49:15;2.70;;;2.60;;
4001;SDS011;2015;48.670;9.060;2022-09-12T15:51:47;3.20;;;2.90;;
4001;SDS011;2015;48.670;9.060;2022-09-12T15:54:18;2.53;;;2.40;;
4001;SDS011;2015;48.670;9.060;2022-09-12T15:56:51;3.37;;;3.17;;
4001;SDS011;2015;48.670;9.060;2022-09-12T15:59:23;2.73;;;2.53;;
4001;SDS011;2015;48.670;9.060;2022-09-12T16:01:55;3.23;;;3.03;;
4001;SDS011;2015;48.670;9.060;2022-09-12T16:04:27;2.90;;;2.70;;
4001;SDS011;2015;48.670;9.060;2022-09-12T16:07:00;2.97;;;2.77;;
4001;SDS011;2015;48.670;9.060;2022-09-12T16:09:32;2.73;;;2.63;;
4001;SDS011;2015;48.670;9.060;2022-09-12T16:12:04;3.27;;;2.90;;
4001;SDS011;2015;48.670;9.060;2022-09-12T16:14:36;2.50;;;2.30;;
4001;SDS011;2015;48.670;9.060;2022-09-12T16:17:08;2.60;;;2.50;;
4001;SDS011;2015;48.670;9.060;2022-09-12T16:19:43;2.47;;;2.37;;
4001;SDS011;2015;48.670;9.060;2022-09-12T16:22:15;2.57;;;2.47;;
4001;SDS011;2015;48.670;9.060;2022-09-12T16:24:47;3.07;;;2.87;;
4001;SDS011;2015;48.670;9.060;2022-09-12T16:27:18;3.13;;;2.80;;
4001;SDS011;2015;48.670;9.060;2022-09-12T16:29:50;2.40;;;2.30;;
4001;SDS011;2015;48.670;9.060;2022-09-12T16:32:22;3.17;;;2.97;;
4001;SDS011;2015;48.670;9.060;2022-09-12T16:34:54;3.27;;;3.13;;
4001;SDS011;2015;48.670;9.060;2022-09-12T16:37:26;2.77;;;2.63;;
4001;SDS011;2015;48.670;9.060;2022-09-12T16:39:58;3.58;;;3.28;;
4001;SDS011;2015;48.670;9.060;2022-09-12T16:42:30;3.73;;;3.53;;
4001;SDS011;2015;48.670;9.060;2022-09-12T16:45:02;3.47;;;3.17;;
4001;SDS011;2015;48.670;9.060;2022-09-12T16:47:34;2.97;;;2.77;;
4001;SDS011;2015;48.670;9.060;2022-09-12T16:50:06;3.87;;;3.67;;
4001;SDS011;2015;48.670;9.060;2022-09-12T16:52:38;3.70;;;3.40;;
4001;SDS011;2015;48.670;9.060;2022-09-12T16:55:09;3.43;;;3.00;;
4001;SDS011;2015;48.670;9.060;2022-09-12T16:57:41;2.83;;;2.63;;
4001;SDS011;2015;48.670;9.060;2022-09-12T17:00:13;3.30;;;3.10;;
4001;SDS011;2015;48.670;9.060;2022-09-12T17:02:45;3.23;;;2.70;;
4001;SDS011;2015;48.670;9.060;2022-09-12T17:05:17;5.07;;;3.07;;
4001;SDS011;2015;48.670;9.060;2022-09-12T17:07:49;4.43;;;4.13;;
4001;SDS011;2015;48.670;9.060;2022-09-12T17:10:22;3.20;;;2.93;;
4001;SDS011;2015;48.670;9.060;2022-09-12T17:12:53;3.67;;;3.43;;
4001;SDS011;2015;48.670;9.060;2022-09-12T17:15:25;3.17;;;2.97;;
4001;SDS011;2015;48.670;9.060;2022-09-12T17:17:57;3.00;;;2.80;;
4001;SDS011;2015;48.670;9.060;2022-09-12T17:20:29;3.33;;;3.13;;
4001;SDS011;2015;48.670;9.060;2022-09-12T17:23:00;2.77;;;2.57;;
4001;SDS011;2015;48.670;9.060;2022-09-12T17:25:37;3.60;;;3.30;;
4001;SDS011;2015;48.670;9.060;2022-09-12T17:28:09;2.90;;;2.63;;
4001;SDS011;2015;48.670;9.060;2022-09-12T17:30:41;4.93;;;3.60;;
4001;SDS011;2015;48.670;9.060;2022-09-12T17:33:13;4.80;;;3.50;;
4001;SDS011;2015;48.670;9.060;2022-09-12T17:35:45;3.57;;;3.33;;
4001;SDS011;2015;48.670;9.060;2022-09-12T17:38:17;3.33;;;3.13;;
4001;SDS011;2015;48.670;9.060;2022-09-12T17:40:55;3.67;;;3.47;;
4001;SDS011;2015;48.670;9.060;2022-09-12T17:43:30;2.77;;;2.60;;
4001;SDS011;2015;48.670;9.060;2022-09-12T17:46:03;3.70;;;3.40;;
4001;SDS011;2015;48.670;9.060;2022-09-12T17:48:36;5.50;;;2.70;;
4001;SDS011;2015;48.670;9.060;2022-09-12T17:51:09;2.97;;;2.77;;
4001;SDS011;2015;48.670;9.060;2022-09-12T17:53:42;4.03;;;3.73;;
4001;SDS011;2015;48.670;9.060;2022-09-12T17:56:14;4.73;;;4.43;;
4001;SDS011;2015;48.670;9.060;2022-09-12T17:58:45;4.00;;;3.80;;
4001;SDS011;2015;48.670;9.060;2022-09-12T18:01:18;3.83;;;2.90;;
4001;SDS011;2015;48.670;9.060;2022-09-12T18:04:09;3.03;;;2.83;;
4001;SDS011;2015;48.670;9.060;2022-09-12T18:06:41;3.50;;;3.20;;
4001;SDS011;2015;48.670;9.060;2022-09-12T18:09:21;3.67;;;3.37;;
4001;SDS011;2015;48.670;9.060;2022-09-12T18:11:55;3.90;;;3.60;;
4001;SDS011;2015;48.670;9.060;2022-09-12T18:14:27;3.07;;;2.87;;
4001;SDS011;2015;48.670;9.060;2022-09-12T18:16:59;3.30;;;3.10;;
4001;SDS011;2015;48.670;9.060;2022-09-12T18:19:31;4.90;;;3.00;;
4001;SDS011;2015;48.670;9.060;2022-09-12T18:22:03;3.77;;;3.57;;
4001;SDS011;2015;48.670;9.060;2022-09-12T18:24:39;3.80;;;3.00;;
4001;SDS011;2015;48.670;9.060;2022-09-12T18:27:11;3.10;;;2.90;;
4001;SDS011;2015;48.670;9.060;2022-09-12T18:29:43;3.20;;;2.90;;
4001;SDS011;2015;48.670;9.060;2022-09-12T18:32:34;3.30;;;3.10;;
4001;SDS011;2015;48.670;9.060;2022-09-12T18:35:06;3.90;;;3.50;;
4001;SDS011;2015;48.670;9.060;2022-09-12T18:37:41;3.77;;;3.40;;
4001;SDS011;2015;48.670;9.060;2022-09-12T18:40:14;3.47;;;3.27;;
4001;SDS011;2015;48.670;9.060;2022-09-12T18:42:45;3.50;;;3.27;;
4001;SDS011;2015;48.670;9.060;2022-09-12T18:45:17;3.07;;;2.77;;
4001;SDS011;2015;48.670;9.060;2022-09-12T18:47:49;3.20;;;3.00;;